sensor_id;sensor_type;location;lat;lon;timestamp;pressure;altitude;pressure_sealevel;temperature;humidity
74230;BME280;62589;12.568;99.958;2023-03-11T00:02:10;101014.38;;;32.32;55.18
74230;BME280;62589;12.568;99.958;2023-03-11T00:04:37;101020.69;;;32.29;55.51
74230;BME280;62589;12.568;99.958;2023-03-11T00:07:08;101017.97;;;32.32;55.12
74230;BME280;62589;12.568;99.958;2023-03-11T00:09:35;101017.59;;;32.34;54.75
74230;BME280;62589;12.568;99.958;2023-03-11T00:12:01;101034.31;;;32.37;54.43
74230;BME280;62589;12.568;99.958;2023-03-11T00:14:28;101033.56;;;32.40;54.49
74230;BME280;62589;12.568;99.958;2023-03-11T00:16:55;101027.63;;;32.42;54.25
74230;BME280;62589;12.568;99.958;2023-03-11T00:19:22;101034.38;;;32.44;54.39
74230;BME280;62589;12.568;99.958;2023-03-11T00:21:49;101035.22;;;32.49;54.61
74230;BME280;62589;12.568;99.958;2023-03-11T00:24:15;101040.00;;;32.48;54.44
74230;BME280;62589;12.568;99.958;2023-03-11T00:26:42;101045.97;;;32.50;54.91
74230;BME280;62589;12.568;99.958;2023-03-11T00:31:36;101041.31;;;32.58;54.90
74230;BME280;62589;12.568;99.958;2023-03-11T00:34:02;101041.34;;;32.61;55.32
74230;BME280;62589;12.568;99.958;2023-03-11T00:36:32;101046.53;;;32.63;55.10
74230;BME280;62589;12.568;99.958;2023-03-11T00:39:00;101053.28;;;32.65;55.08
74230;BME280;62589;12.568;99.958;2023-03-11T00:41:27;101058.50;;;32.70;55.01
74230;BME280;62589;12.568;99.958;2023-03-11T00:43:54;101058.59;;;32.74;55.12
74230;BME280;62589;12.568;99.958;2023-03-11T00:46:20;101055.44;;;32.75;54.62
74230;BME280;62589;12.568;99.958;2023-03-11T00:48:49;101067.00;;;32.81;54.49
74230;BME280;62589;12.568;99.958;2023-03-11T00:51:16;101070.59;;;32.85;54.29
74230;BME280;62589;12.568;99.958;2023-03-11T00:53:43;101068.66;;;32.89;53.96
74230;BME280;62589;12.568;99.958;2023-03-11T00:56:11;101073.91;;;32.94;54.26
74230;BME280;62589;12.568;99.958;2023-03-11T00:58:38;101080.31;;;32.98;53.65
74230;BME280;62589;12.568;99.958;2023-03-11T01:01:14;101074.41;;;33.03;53.74
74230;BME280;62589;12.568;99.958;2023-03-11T01:03:41;101077.22;;;33.10;53.26
74230;BME280;62589;12.568;99.958;2023-03-11T01:06:08;101087.59;;;33.13;53.16
74230;BME280;62589;12.568;99.958;2023-03-11T01:08:35;101083.69;;;33.18;53.30
74230;BME280;62589;12.568;99.958;2023-03-11T01:11:03;101086.50;;;33.22;52.95
74230;BME280;62589;12.568;99.958;2023-03-11T01:13:30;101084.22;;;33.31;52.57
74230;BME280;62589;12.568;99.958;2023-03-11T01:15:57;101084.66;;;33.36;52.20
74230;BME280;62589;12.568;99.958;2023-03-11T01:18:24;101094.66;;;33.41;52.67
74230;BME280;62589;12.568;99.958;2023-03-11T01:20:50;101087.94;;;33.49;52.47
74230;BME280;62589;12.568;99.958;2023-03-11T01:23:18;101087.19;;;33.56;52.13
74230;BME280;62589;12.568;99.958;2023-03-11T01:25:45;101092.38;;;33.57;52.15
74230;BME280;62589;12.568;99.958;2023-03-11T01:28:11;101091.59;;;33.57;52.07
74230;BME280;62589;12.568;99.958;2023-03-11T01:30:40;101094.06;;;33.65;51.98
74230;BME280;62589;12.568;99.958;2023-03-11T01:33:08;101096.84;;;33.69;51.58
74230;BME280;62589;12.568;99.958;2023-03-11T01:35:38;101092.91;;;33.73;51.18
74230;BME280;62589;12.568;99.958;2023-03-11T01:38:07;101106.06;;;33.76;51.37
74230;BME280;62589;12.568;99.958;2023-03-11T01:40:39;101108.91;;;33.80;51.11
74230;BME280;62589;12.568;99.958;2023-03-11T01:43:37;101112.56;;;33.91;50.57
74230;BME280;62589;12.568;99.958;2023-03-11T01:46:17;101114.16;;;33.92;50.75
74230;BME280;62589;12.568;99.958;2023-03-11T01:48:56;101122.19;;;34.01;51.03
74230;BME280;62589;12.568;99.958;2023-03-11T01:51:27;101118.25;;;34.05;50.36
74230;BME280;62589;12.568;99.958;2023-03-11T01:53:56;101115.88;;;34.14;50.43
74230;BME280;62589;12.568;99.958;2023-03-11T01:56:24;101125.09;;;34.22;50.43
74230;BME280;62589;12.568;99.958;2023-03-11T01:58:51;101130.69;;;34.26;49.93
74230;BME280;62589;12.568;99.958;2023-03-11T02:01:20;101124.78;;;34.34;49.89
74230;BME280;62589;12.568;99.958;2023-03-11T02:03:47;101124.78;;;34.34;49.08
74230;BME280;62589;12.568;99.958;2023-03-11T02:06:20;101135.94;;;34.34;49.62
74230;BME280;62589;12.568;99.958;2023-03-11T02:08:48;101140.72;;;34.37;49.00
74230;BME280;62589;12.568;99.958;2023-03-11T02:11:20;101136.81;;;34.45;49.20
74230;BME280;62589;12.568;99.958;2023-03-11T02:13:54;101148.00;;;34.56;48.98
74230;BME280;62589;12.568;99.958;2023-03-11T02:16:32;101148.41;;;34.62;48.61
74230;BME280;62589;12.568;99.958;2023-03-11T02:19:16;101153.63;;;34.67;48.45
74230;BME280;62589;12.568;99.958;2023-03-11T02:21:44;101152.84;;;34.66;48.72
74230;BME280;62589;12.568;99.958;2023-03-11T02:24:23;101151.25;;;34.72;48.51
74230;BME280;62589;12.568;99.958;2023-03-11T02:27:16;101160.13;;;34.89;48.03
74230;BME280;62589;12.568;99.958;2023-03-11T02:29:47;101159.31;;;34.85;47.93
74230;BME280;62589;12.568;99.958;2023-03-11T02:32:15;101160.50;;;34.84;48.60
74230;BME280;62589;12.568;99.958;2023-03-11T02:34:48;101156.94;;;34.97;48.30
74230;BME280;62589;12.568;99.958;2023-03-11T02:37:27;101150.59;;;35.07;47.62
74230;BME280;62589;12.568;99.958;2023-03-11T02:39:54;101161.75;;;35.04;47.37
74230;BME280;62589;12.568;99.958;2023-03-11T02:42:29;101147.03;;;35.18;47.68
74230;BME280;62589;12.568;99.958;2023-03-11T02:45:04;101149.84;;;35.25;47.47
74230;BME280;62589;12.568;99.958;2023-03-11T02:47:35;101153.84;;;35.27;46.43
74230;BME280;62589;12.568;99.958;2023-03-11T02:50:16;101144.69;;;35.37;46.40
74230;BME280;62589;12.568;99.958;2023-03-11T02:52:47;101150.69;;;35.29;46.23
74230;BME280;62589;12.568;99.958;2023-03-11T02:55:29;101149.09;;;35.42;46.92
74230;BME280;62589;12.568;99.958;2023-03-11T02:57:55;101148.69;;;35.47;46.71
74230;BME280;62589;12.568;99.958;2023-03-11T03:00:22;101149.09;;;35.49;45.91
74230;BME280;62589;12.568;99.958;2023-03-11T03:02:49;101147.50;;;35.59;45.98
74230;BME280;62589;12.568;99.958;2023-03-11T03:05:18;101143.91;;;35.58;45.99
74230;BME280;62589;12.568;99.958;2023-03-11T03:07:47;101141.91;;;35.62;45.18
74230;BME280;62589;12.568;99.958;2023-03-11T03:10:15;101153.91;;;35.66;45.70
74230;BME280;62589;12.568;99.958;2023-03-11T03:12:42;101145.91;;;35.75;45.28
74230;BME280;62589;12.568;99.958;2023-03-11T03:15:09;101151.50;;;35.72;45.22
74230;BME280;62589;12.568;99.958;2023-03-11T03:17:37;101155.13;;;35.87;44.83
74230;BME280;62589;12.568;99.958;2023-03-11T03:20:05;101148.31;;;35.95;44.66
74230;BME280;62589;12.568;99.958;2023-03-11T03:22:37;101133.94;;;36.00;44.91
74230;BME280;62589;12.568;99.958;2023-03-11T03:25:04;101130.72;;;36.08;45.23
74230;BME280;62589;12.568;99.958;2023-03-11T03:27:32;101128.69;;;36.20;44.91
74230;BME280;62589;12.568;99.958;2023-03-11T03:29:58;101124.28;;;36.22;44.61
74230;BME280;62589;12.568;99.958;2023-03-11T03:32:25;101121.91;;;36.17;44.02
74230;BME280;62589;12.568;99.958;2023-03-11T03:34:54;101126.31;;;36.29;44.05
74230;BME280;62589;12.568;99.958;2023-03-11T03:37:25;101127.53;;;36.24;44.88
74230;BME280;62589;12.568;99.958;2023-03-11T03:39:55;101114.72;;;36.27;44.85
74230;BME280;62589;12.568;99.958;2023-03-11T03:42:24;101124.72;;;36.24;45.11
74230;BME280;62589;12.568;99.958;2023-03-11T03:44:54;101115.06;;;36.39;44.62
74230;BME280;62589;12.568;99.958;2023-03-11T03:47:21;101122.31;;;36.33;44.78
74230;BME280;62589;12.568;99.958;2023-03-11T03:49:47;101121.13;;;36.27;45.04
74230;BME280;62589;12.568;99.958;2023-03-11T03:52:14;101121.13;;;36.27;45.37
74230;BME280;62589;12.568;99.958;2023-03-11T03:54:40;101111.53;;;36.28;45.21
74230;BME280;62589;12.568;99.958;2023-03-11T03:57:07;101119.13;;;36.28;45.95
74230;BME280;62589;12.568;99.958;2023-03-11T03:59:33;101114.72;;;36.30;45.82
74230;BME280;62589;12.568;99.958;2023-03-11T04:02:00;101110.69;;;36.38;46.40
74230;BME280;62589;12.568;99.958;2023-03-11T04:04:26;101107.56;;;36.15;45.19
74230;BME280;62589;12.568;99.958;2023-03-11T04:06:53;101114.72;;;36.37;45.26
74230;BME280;62589;12.568;99.958;2023-03-11T04:09:19;101105.13;;;36.31;45.07
74230;BME280;62589;12.568;99.958;2023-03-11T04:11:46;101102.75;;;36.33;45.35
74230;BME280;62589;12.568;99.958;2023-03-11T04:14:13;101109.13;;;36.37;45.19
74230;BME280;62589;12.568;99.958;2023-03-11T04:16:39;101108.28;;;36.40;44.90
74230;BME280;62589;12.568;99.958;2023-03-11T04:19:05;101097.09;;;36.44;45.24
74230;BME280;62589;12.568;99.958;2023-03-11T04:21:32;101098.28;;;36.46;44.76
74230;BME280;62589;12.568;99.958;2023-03-11T04:23:59;101084.69;;;36.48;45.07
74230;BME280;62589;12.568;99.958;2023-03-11T04:26:25;101083.09;;;36.47;44.40
74230;BME280;62589;12.568;99.958;2023-03-11T04:28:53;101081.94;;;36.38;44.48
74230;BME280;62589;12.568;99.958;2023-03-11T04:31:19;101075.50;;;36.44;44.71
74230;BME280;62589;12.568;99.958;2023-03-11T04:33:46;101079.53;;;36.40;44.58
74230;BME280;62589;12.568;99.958;2023-03-11T04:36:12;101079.53;;;36.40;45.12
74230;BME280;62589;12.568;99.958;2023-03-11T04:38:39;101069.59;;;36.35;44.65
74230;BME280;62589;12.568;99.958;2023-03-11T04:41:06;101061.94;;;36.39;44.98
74230;BME280;62589;12.568;99.958;2023-03-11T04:43:33;101058.78;;;36.37;45.00
74230;BME280;62589;12.568;99.958;2023-03-11T04:45:59;101057.16;;;36.40;44.99
74230;BME280;62589;12.568;99.958;2023-03-11T04:48:25;101055.56;;;36.39;44.80
74230;BME280;62589;12.568;99.958;2023-03-11T04:50:52;101047.97;;;36.39;44.42
74230;BME280;62589;12.568;99.958;2023-03-11T04:53:20;101038.84;;;36.28;44.82
74230;BME280;62589;12.568;99.958;2023-03-11T04:55:47;101035.63;;;36.37;44.85
74230;BME280;62589;12.568;99.958;2023-03-11T04:58:13;101030.81;;;36.37;44.95
74230;BME280;62589;12.568;99.958;2023-03-11T05:00:40;101018.47;;;36.31;44.23
74230;BME280;62589;12.568;99.958;2023-03-11T05:03:06;101020.84;;;36.33;45.34
74230;BME280;62589;12.568;99.958;2023-03-11T05:05:36;101013.25;;;36.37;45.21
74230;BME280;62589;12.568;99.958;2023-03-11T05:08:02;101014.38;;;36.46;45.24
74230;BME280;62589;12.568;99.958;2023-03-11T05:10:29;101024.09;;;36.13;43.83
74230;BME280;62589;12.568;99.958;2023-03-11T05:12:55;101019.34;;;36.07;44.51
74230;BME280;62589;12.568;99.958;2023-03-11T05:15:22;101011.75;;;36.07;43.95
74230;BME280;62589;12.568;99.958;2023-03-11T05:17:48;101013.03;;;35.78;45.04
74230;BME280;62589;12.568;99.958;2023-03-11T05:20:15;100999.75;;;36.10;44.81
74230;BME280;62589;12.568;99.958;2023-03-11T05:22:41;101008.53;;;36.16;44.09
74230;BME280;62589;12.568;99.958;2023-03-11T05:25:08;101000.50;;;36.18;44.38
74230;BME280;62589;12.568;99.958;2023-03-11T05:27:34;100989.72;;;36.24;44.66
74230;BME280;62589;12.568;99.958;2023-03-11T05:30:01;100992.59;;;36.02;44.61
74230;BME280;62589;12.568;99.958;2023-03-11T05:32:27;100982.16;;;36.24;44.60
74230;BME280;62589;12.568;99.958;2023-03-11T05:34:54;100990.91;;;36.23;44.80
74230;BME280;62589;12.568;99.958;2023-03-11T05:37:20;100972.59;;;36.11;45.02
74230;BME280;62589;12.568;99.958;2023-03-11T05:39:46;100974.69;;;35.89;45.49
74230;BME280;62589;12.568;99.958;2023-03-11T05:42:13;100971.84;;;36.00;45.79
74230;BME280;62589;12.568;99.958;2023-03-11T05:44:42;100967.91;;;35.87;45.86
74230;BME280;62589;12.568;99.958;2023-03-11T05:47:09;100964.25;;;35.97;45.99
74230;BME280;62589;12.568;99.958;2023-03-11T05:49:35;100959.06;;;36.06;46.22
74230;BME280;62589;12.568;99.958;2023-03-11T05:52:02;100948.25;;;36.11;46.11
74230;BME280;62589;12.568;99.958;2023-03-11T05:54:28;100947.44;;;36.14;44.64
74230;BME280;62589;12.568;99.958;2023-03-11T05:56:55;100960.25;;;36.05;45.25
74230;BME280;62589;12.568;99.958;2023-03-11T05:59:21;100946.66;;;36.14;45.25
74230;BME280;62589;12.568;99.958;2023-03-11T06:01:48;100935.91;;;36.02;45.42
74230;BME280;62589;12.568;99.958;2023-03-11T06:04:17;100937.50;;;36.06;44.82
74230;BME280;62589;12.568;99.958;2023-03-11T06:06:44;100936.22;;;36.18;45.90
74230;BME280;62589;12.568;99.958;2023-03-11T06:09:12;100933.06;;;36.16;45.64
74230;BME280;62589;12.568;99.958;2023-03-11T06:11:39;100936.38;;;35.93;46.04
74230;BME280;62589;12.568;99.958;2023-03-11T06:14:05;100926.00;;;35.87;45.44
74230;BME280;62589;12.568;99.958;2023-03-11T06:16:32;100921.94;;;36.02;44.78
74230;BME280;62589;12.568;99.958;2023-03-11T06:18:58;100925.50;;;36.06;44.67
74230;BME280;62589;12.568;99.958;2023-03-11T06:21:25;100918.72;;;36.07;44.98
74230;BME280;62589;12.568;99.958;2023-03-11T06:23:52;100919.91;;;36.09;44.11
74230;BME280;62589;12.568;99.958;2023-03-11T06:26:20;100918.00;;;35.96;44.32
74230;BME280;62589;12.568;99.958;2023-03-11T06:28:47;100911.91;;;36.15;44.48
74230;BME280;62589;12.568;99.958;2023-03-11T06:31:23;100912.25;;;36.24;44.71
74230;BME280;62589;12.568;99.958;2023-03-11T06:33:51;100909.06;;;36.26;44.65
74230;BME280;62589;12.568;99.958;2023-03-11T06:36:18;100902.66;;;36.29;44.68
74230;BME280;62589;12.568;99.958;2023-03-11T06:38:45;100894.22;;;36.36;43.85
74230;BME280;62589;12.568;99.958;2023-03-11T06:41:13;100898.63;;;36.33;44.18
74230;BME280;62589;12.568;99.958;2023-03-11T06:43:39;100889.03;;;36.34;43.21
74230;BME280;62589;12.568;99.958;2023-03-11T06:46:11;100890.66;;;36.28;44.02
74230;BME280;62589;12.568;99.958;2023-03-11T06:48:38;100883.09;;;36.22;43.67
74230;BME280;62589;12.568;99.958;2023-03-11T06:51:04;100885.47;;;36.30;44.52
74230;BME280;62589;12.568;99.958;2023-03-11T06:53:31;100871.50;;;36.23;44.56
74230;BME280;62589;12.568;99.958;2023-03-11T06:56:06;100873.50;;;36.26;45.01
74230;BME280;62589;12.568;99.958;2023-03-11T06:58:34;100863.09;;;36.30;45.05
74230;BME280;62589;12.568;99.958;2023-03-11T07:01:03;100862.75;;;36.17;44.39
74230;BME280;62589;12.568;99.958;2023-03-11T07:03:30;100854.78;;;36.16;44.67
74230;BME280;62589;12.568;99.958;2023-03-11T07:05:57;100857.25;;;36.07;45.67
74230;BME280;62589;12.568;99.958;2023-03-11T07:08:24;100848.41;;;36.15;46.41
74230;BME280;62589;12.568;99.958;2023-03-11T07:11:05;100838.31;;;36.32;46.66
74230;BME280;62589;12.568;99.958;2023-03-11T07:13:33;100843.84;;;36.39;45.12
74230;BME280;62589;12.568;99.958;2023-03-11T07:16:02;100843.16;;;36.21;45.47
74230;BME280;62589;12.568;99.958;2023-03-11T07:18:29;100835.97;;;36.24;44.73
74230;BME280;62589;12.568;99.958;2023-03-11T07:20:55;100829.88;;;36.39;44.74
74230;BME280;62589;12.568;99.958;2023-03-11T07:23:22;100826.38;;;36.28;44.19
74230;BME280;62589;12.568;99.958;2023-03-11T07:25:48;100835.97;;;36.24;44.00
74230;BME280;62589;12.568;99.958;2023-03-11T07:28:17;100829.19;;;36.17;44.24
74230;BME280;62589;12.568;99.958;2023-03-11T07:30:44;100831.19;;;36.21;44.28
74230;BME280;62589;12.568;99.958;2023-03-11T07:33:11;100821.28;;;36.09;43.74
74230;BME280;62589;12.568;99.958;2023-03-11T07:35:38;100820.88;;;36.14;43.83
74230;BME280;62589;12.568;99.958;2023-03-11T07:38:04;100809.63;;;36.21;44.37
74230;BME280;62589;12.568;99.958;2023-03-11T07:40:31;100808.13;;;36.09;45.39
74230;BME280;62589;12.568;99.958;2023-03-11T07:42:57;100804.31;;;35.78;44.61
74230;BME280;62589;12.568;99.958;2023-03-11T07:45:24;100793.91;;;35.83;46.51
74230;BME280;62589;12.568;99.958;2023-03-11T07:47:50;100794.97;;;36.06;45.96
74230;BME280;62589;12.568;99.958;2023-03-11T07:50:17;100789.41;;;35.99;45.37
74230;BME280;62589;12.568;99.958;2023-03-11T07:52:47;100788.63;;;35.99;46.46
74230;BME280;62589;12.568;99.958;2023-03-11T07:55:14;100781.44;;;35.98;46.02
74230;BME280;62589;12.568;99.958;2023-03-11T07:57:40;100771.81;;;36.06;45.48
74230;BME280;62589;12.568;99.958;2023-03-11T08:00:09;100777.38;;;36.09;46.87
74230;BME280;62589;12.568;99.958;2023-03-11T08:02:37;100782.16;;;36.09;47.06
74230;BME280;62589;12.568;99.958;2023-03-11T08:05:04;100770.59;;;36.07;47.00
74230;BME280;62589;12.568;99.958;2023-03-11T08:07:31;100765.81;;;36.07;47.17
74230;BME280;62589;12.568;99.958;2023-03-11T08:09:58;100759.94;;;35.95;46.70
74230;BME280;62589;12.568;99.958;2023-03-11T08:12:24;100761.47;;;35.99;46.57
74230;BME280;62589;12.568;99.958;2023-03-11T08:14:51;100764.38;;;35.81;47.29
74230;BME280;62589;12.568;99.958;2023-03-11T08:17:17;100751.19;;;35.86;47.43
74230;BME280;62589;12.568;99.958;2023-03-11T08:19:44;100757.66;;;35.68;48.51
74230;BME280;62589;12.568;99.958;2023-03-11T08:22:10;100751.78;;;35.52;48.48
74230;BME280;62589;12.568;99.958;2023-03-11T08:24:37;100752.59;;;35.49;48.94
74230;BME280;62589;12.568;99.958;2023-03-11T08:27:03;100748.53;;;35.57;48.95
74230;BME280;62589;12.568;99.958;2023-03-11T08:29:30;100750.69;;;35.32;49.88
74230;BME280;62589;12.568;99.958;2023-03-11T08:31:56;100743.06;;;35.43;49.81
74230;BME280;62589;12.568;99.958;2023-03-11T08:34:23;100758.22;;;35.38;50.01
74230;BME280;62589;12.568;99.958;2023-03-11T08:36:52;100739.88;;;35.34;50.27
74230;BME280;62589;12.568;99.958;2023-03-11T08:39:18;100741.88;;;35.37;50.21
74230;BME280;62589;12.568;99.958;2023-03-11T08:41:45;100743.94;;;35.15;51.68
74230;BME280;62589;12.568;99.958;2023-03-11T08:44:11;100741.53;;;35.17;51.42
74230;BME280;62589;12.568;99.958;2023-03-11T08:46:38;100736.28;;;35.37;50.61
74230;BME280;62589;12.568;99.958;2023-03-11T08:49:05;100744.72;;;35.23;50.15
74230;BME280;62589;12.568;99.958;2023-03-11T08:51:33;100737.53;;;35.22;50.08
74230;BME280;62589;12.568;99.958;2023-03-11T08:54:00;100731.16;;;35.32;49.08
74230;BME280;62589;12.568;99.958;2023-03-11T08:56:27;100739.47;;;35.39;49.53
74230;BME280;62589;12.568;99.958;2023-03-11T08:58:53;100742.25;;;35.39;49.30
74230;BME280;62589;12.568;99.958;2023-03-11T09:01:20;100741.91;;;35.33;48.82
74230;BME280;62589;12.568;99.958;2023-03-11T09:03:47;100738.69;;;35.35;49.96
74230;BME280;62589;12.568;99.958;2023-03-11T09:06:15;100740.31;;;35.32;49.15
74230;BME280;62589;12.568;99.958;2023-03-11T09:08:43;100742.28;;;35.35;49.47
74230;BME280;62589;12.568;99.958;2023-03-11T09:11:09;100740.25;;;35.43;49.11
74230;BME280;62589;12.568;99.958;2023-03-11T09:13:38;100738.69;;;35.38;48.11
74230;BME280;62589;12.568;99.958;2023-03-11T09:16:13;100740.72;;;35.31;48.47
74230;BME280;62589;12.568;99.958;2023-03-11T09:18:40;100737.47;;;35.43;48.59
74230;BME280;62589;12.568;99.958;2023-03-11T09:21:07;100730.72;;;35.37;49.38
74230;BME280;62589;12.568;99.958;2023-03-11T09:23:33;100735.84;;;35.49;49.09
74230;BME280;62589;12.568;99.958;2023-03-11T09:26:00;100727.78;;;35.58;49.06
74230;BME280;62589;12.568;99.958;2023-03-11T09:28:26;100741.47;;;35.42;50.03
74230;BME280;62589;12.568;99.958;2023-03-11T09:30:53;100737.47;;;35.43;50.29
74230;BME280;62589;12.568;99.958;2023-03-11T09:33:19;100743.00;;;35.54;50.14
74230;BME280;62589;12.568;99.958;2023-03-11T09:35:45;100744.63;;;35.51;49.68
74230;BME280;62589;12.568;99.958;2023-03-11T09:38:12;100752.59;;;35.49;50.06
74230;BME280;62589;12.568;99.958;2023-03-11T09:43:42;100752.47;;;35.70;49.70
74230;BME280;62589;12.568;99.958;2023-03-11T09:46:35;100749.31;;;35.61;49.69
74230;BME280;62589;12.568;99.958;2023-03-11T09:52:10;100749.34;;;35.58;49.92
74230;BME280;62589;12.568;99.958;2023-03-11T09:54:39;100749.72;;;35.60;50.02
74230;BME280;62589;12.568;99.958;2023-03-11T09:57:13;100749.41;;;35.47;50.57
74230;BME280;62589;12.568;99.958;2023-03-11T09:59:41;100751.72;;;35.59;50.42
74230;BME280;62589;12.568;99.958;2023-03-11T10:02:14;100752.94;;;35.58;50.18
74230;BME280;62589;12.568;99.958;2023-03-11T10:05:02;100757.31;;;35.56;50.07
74230;BME280;62589;12.568;99.958;2023-03-11T10:07:37;100758.22;;;35.35;49.98
74230;BME280;62589;12.568;99.958;2023-03-11T10:10:06;100763.00;;;35.38;49.78
74230;BME280;62589;12.568;99.958;2023-03-11T10:15:50;100758.28;;;35.31;49.02
74230;BME280;62589;12.568;99.958;2023-03-11T10:18:41;100774.16;;;35.41;48.74
74230;BME280;62589;12.568;99.958;2023-03-11T10:21:34;100778.22;;;35.30;49.02
74230;BME280;62589;12.568;99.958;2023-03-11T10:27:06;100787.00;;;35.18;48.60
74230;BME280;62589;12.568;99.958;2023-03-11T10:29:51;100787.38;;;35.20;48.92
74230;BME280;62589;12.568;99.958;2023-03-11T10:32:36;100793.38;;;35.22;49.11
74230;BME280;62589;12.568;99.958;2023-03-11T10:38:01;100793.41;;;35.07;48.94
74230;BME280;62589;12.568;99.958;2023-03-11T10:40:40;100786.25;;;34.99;48.71
74230;BME280;62589;12.568;99.958;2023-03-11T10:43:37;100790.59;;;35.14;48.50
74230;BME280;62589;12.568;99.958;2023-03-11T10:46:13;100797.41;;;35.06;48.30
74230;BME280;62589;12.568;99.958;2023-03-11T10:48:43;100795.00;;;35.12;47.66
74230;BME280;62589;12.568;99.958;2023-03-11T10:51:17;100794.63;;;35.06;48.13
74230;BME280;62589;12.568;99.958;2023-03-11T10:53:53;100795.75;;;35.20;48.05
74230;BME280;62589;12.568;99.958;2023-03-11T10:56:40;100790.16;;;35.27;47.88
74230;BME280;62589;12.568;99.958;2023-03-11T10:59:23;100797.34;;;35.24;48.19
74230;BME280;62589;12.568;99.958;2023-03-11T11:01:55;100802.16;;;35.13;48.65
74230;BME280;62589;12.568;99.958;2023-03-11T11:04:35;100803.72;;;35.18;48.10
74230;BME280;62589;12.568;99.958;2023-03-11T11:07:21;100805.72;;;35.17;47.87
74230;BME280;62589;12.568;99.958;2023-03-11T11:10:13;100806.97;;;35.12;47.87
74230;BME280;62589;12.568;99.958;2023-03-11T11:12:54;100809.38;;;35.07;48.32
74230;BME280;62589;12.568;99.958;2023-03-11T11:15:31;100816.53;;;35.11;48.17
74230;BME280;62589;12.568;99.958;2023-03-11T11:18:02;100819.69;;;35.13;48.37
74230;BME280;62589;12.568;99.958;2023-03-11T11:20:31;100828.06;;;35.13;48.02
74230;BME280;62589;12.568;99.958;2023-03-11T11:23:01;100830.44;;;35.15;47.81
74230;BME280;62589;12.568;99.958;2023-03-11T11:25:34;100826.84;;;35.18;47.84
74230;BME280;62589;12.568;99.958;2023-03-11T11:28:15;100832.84;;;35.24;47.58
74230;BME280;62589;12.568;99.958;2023-03-11T11:30:56;100833.63;;;35.24;47.36
74230;BME280;62589;12.568;99.958;2023-03-11T11:33:29;100847.19;;;35.26;47.26
74230;BME280;62589;12.568;99.958;2023-03-11T11:36:10;100838.41;;;35.17;46.98
74230;BME280;62589;12.568;99.958;2023-03-11T11:38:38;100849.97;;;35.19;46.33
74230;BME280;62589;12.568;99.958;2023-03-11T11:41:04;100848.38;;;35.18;46.69
74230;BME280;62589;12.568;99.958;2023-03-11T11:43:59;100851.59;;;35.16;46.56
74230;BME280;62589;12.568;99.958;2023-03-11T11:46:41;100854.78;;;35.18;46.25
74230;BME280;62589;12.568;99.958;2023-03-11T11:49:24;100857.56;;;35.14;46.60
74230;BME280;62589;12.568;99.958;2023-03-11T11:54:49;100863.19;;;35.00;46.90
74230;BME280;62589;12.568;99.958;2023-03-11T11:57:19;100865.19;;;35.00;46.67
74230;BME280;62589;12.568;99.958;2023-03-11T11:59:47;100874.34;;;35.00;46.72
74230;BME280;62589;12.568;99.958;2023-03-11T12:02:41;100877.13;;;34.97;46.76
74230;BME280;62589;12.568;99.958;2023-03-11T12:05:29;100877.94;;;35.01;46.49
74230;BME280;62589;12.568;99.958;2023-03-11T12:11:06;100885.13;;;34.91;46.50
74230;BME280;62589;12.568;99.958;2023-03-11T12:14:01;100892.28;;;34.92;46.48
74230;BME280;62589;12.568;99.958;2023-03-11T12:19:36;100887.53;;;34.89;45.42
74230;BME280;62589;12.568;99.958;2023-03-11T12:25:25;100899.84;;;34.74;45.11
74230;BME280;62589;12.568;99.958;2023-03-11T12:30:47;100907.41;;;34.63;45.91
74230;BME280;62589;12.568;99.958;2023-03-11T12:33:26;100910.59;;;34.58;46.23
74230;BME280;62589;12.568;99.958;2023-03-11T12:35:57;100903.41;;;34.57;46.98
74230;BME280;62589;12.568;99.958;2023-03-11T12:38:37;100917.75;;;34.44;48.26
74230;BME280;62589;12.568;99.958;2023-03-11T12:44:24;100916.94;;;34.51;48.46
74230;BME280;62589;12.568;99.958;2023-03-11T12:47:00;100928.09;;;34.44;48.65
74230;BME280;62589;12.568;99.958;2023-03-11T12:49:33;100936.44;;;34.40;48.47
74230;BME280;62589;12.568;99.958;2023-03-11T12:52:19;100938.38;;;34.26;49.24
74230;BME280;62589;12.568;99.958;2023-03-11T12:58:03;100945.59;;;34.37;49.25
74230;BME280;62589;12.568;99.958;2023-03-11T13:01:02;100943.63;;;34.38;49.81
74230;BME280;62589;12.568;99.958;2023-03-11T13:03:44;100944.00;;;34.36;49.58
74230;BME280;62589;12.568;99.958;2023-03-11T13:09:15;100950.31;;;34.19;50.40
74230;BME280;62589;12.568;99.958;2023-03-11T13:11:44;100960.66;;;34.19;50.52
74230;BME280;62589;12.568;99.958;2023-03-11T13:14:26;100968.22;;;34.18;50.43
74230;BME280;62589;12.568;99.958;2023-03-11T13:16:55;100963.81;;;34.13;50.82
74230;BME280;62589;12.568;99.958;2023-03-11T13:19:51;100966.22;;;34.19;50.76
74230;BME280;62589;12.568;99.958;2023-03-11T13:22:40;100970.56;;;34.09;50.41
74230;BME280;62589;12.568;99.958;2023-03-11T13:25:34;100978.59;;;34.21;50.31
74230;BME280;62589;12.568;99.958;2023-03-11T13:33:53;100976.53;;;34.04;50.87
74230;BME280;62589;12.568;99.958;2023-03-11T13:36:43;100989.28;;;34.12;51.19
74230;BME280;62589;12.568;99.958;2023-03-11T13:39:44;100985.28;;;34.02;51.49
74230;BME280;62589;12.568;99.958;2023-03-11T13:44:57;100984.03;;;33.96;51.04
74230;BME280;62589;12.568;99.958;2023-03-11T13:47:25;100991.66;;;34.03;51.04
74230;BME280;62589;12.568;99.958;2023-03-11T13:50:05;100994.44;;;34.06;51.22